Time;durP1;ratioP1;P1;durP2;ratioP2;P2;SDS_P1;SDS_P2;PMS_P1;PMS_P2;Temp;Humidity;BMP_temperature;BMP_pressure;BME280_temperature;BME280_humidity;BME280_pressure;Samples;Min_cycle;Max_cycle;Signal;HPM_P1;HPM_P2
2023/04/15 00:01:10;;;;;;;1.33;1.17;;;22.00;39.30;;;;;;5018083;28;20060;-61
2023/04/15 00:03:38;;;;;;;1.10;1.00;;;22.00;39.30;;;;;;5023626;28;20104;-61
2023/04/15 00:06:06;;;;;;;1.13;1.02;;;22.00;39.30;;;;;;5017229;28;20045;-60
2023/04/15 00:08:33;;;;;;;1.35;1.25;;;22.00;39.30;;;;;;5020772;28;20045;-61
2023/04/15 00:11:04;;;;;;;1.10;1.00;;;22.00;39.20;;;;;;5024794;28;20132;-60
2023/04/15 00:13:32;;;;;;;1.35;1.10;;;22.00;39.30;;;;;;5018675;28;20053;-61
2023/04/15 00:16:00;;;;;;;1.08;1.08;;;22.00;39.20;;;;;;5016293;28;20053;-60
2023/04/15 00:18:28;;;;;;;0.73;0.73;;;22.00;39.30;;;;;;5015475;28;20046;-61
2023/04/15 00:20:55;;;;;;;1.33;1.23;;;22.00;39.30;;;;;;5022244;28;20064;-60
2023/04/15 00:23:23;;;;;;;1.83;1.33;;;22.00;39.20;;;;;;5016022;28;20041;-61
2023/04/15 00:25:50;;;;;;;1.13;0.98;;;21.90;39.20;;;;;;5017440;28;20138;-60
2023/04/15 00:28:18;;;;;;;1.25;1.20;;;22.00;39.20;;;;;;5017020;28;20088;-60
2023/04/15 00:30:46;;;;;;;0.90;0.90;;;22.00;39.30;;;;;;5018538;28;20054;-61
2023/04/15 00:33:15;;;;;;;1.02;0.82;;;22.00;39.30;;;;;;5016896;28;20061;-60
2023/04/15 00:35:42;;;;;;;0.93;0.90;;;21.90;39.20;;;;;;5021323;28;20065;-60
2023/04/15 00:38:10;;;;;;;1.63;1.50;;;21.90;39.30;;;;;;5026226;28;20046;-60
2023/04/15 00:40:37;;;;;;;1.25;0.85;;;21.90;39.30;;;;;;5019542;28;20049;-61
2023/04/15 00:43:05;;;;;;;1.00;1.00;;;21.90;39.30;;;;;;5019960;28;21320;-61
2023/04/15 00:45:33;;;;;;;0.88;0.88;;;21.90;39.30;;;;;;5024712;28;20054;-61
2023/04/15 00:48:00;;;;;;;1.25;1.13;;;21.90;39.20;;;;;;5016896;28;20092;-61
2023/04/15 00:50:27;;;;;;;0.80;0.70;;;21.90;39.20;;;;;;5026388;28;20068;-60
2023/04/15 00:52:54;;;;;;;0.80;0.80;;;21.90;39.20;;;;;;5017243;28;20141;-60
2023/04/15 00:55:22;;;;;;;1.20;1.10;;;22.00;39.20;;;;;;5021120;28;20057;-61
2023/04/15 00:57:49;;;;;;;0.82;0.82;;;22.00;39.20;;;;;;5017705;28;20054;-60
2023/04/15 01:00:17;;;;;;;0.82;0.82;;;22.00;39.20;;;;;;5016141;28;20061;-61
2023/04/15 01:02:44;;;;;;;1.08;1.00;;;22.00;39.10;;;;;;5015848;28;20057;-60
2023/04/15 01:05:11;;;;;;;0.80;0.80;;;22.00;39.10;;;;;;5020528;28;20088;-61
2023/04/15 01:07:38;;;;;;;0.80;0.80;;;22.00;39.10;;;;;;5016765;28;20054;-61
2023/04/15 01:10:07;;;;;;;1.30;1.00;;;22.00;39.10;;;;;;5018957;28;20068;-60
2023/04/15 01:12:35;;;;;;;0.90;0.90;;;22.00;39.10;;;;;;5014439;28;20057;-60
2023/04/15 01:15:03;;;;;;;0.80;0.70;;;21.90;39.10;;;;;;5014743;28;20050;-61
2023/04/15 01:17:30;;;;;;;0.90;0.90;;;21.90;39.10;;;;;;5017587;28;20406;-61
2023/04/15 01:19:58;;;;;;;1.00;0.90;;;21.90;39.10;;;;;;5014695;28;20050;-61
2023/04/15 01:22:26;;;;;;;1.10;0.70;;;21.90;39.10;;;;;;5018870;28;20473;-61
2023/04/15 01:25:07;;;;;;;0.65;0.60;;;21.90;39.10;;;;;;5020894;28;20422;-61
2023/04/15 01:27:36;;;;;;;0.80;0.80;;;21.90;39.10;;;;;;5019859;28;20049;-61
2023/04/15 01:30:04;;;;;;;0.80;0.80;;;21.90;39.10;;;;;;5025222;28;20053;-60
2023/04/15 01:32:31;;;;;;;0.63;0.63;;;21.90;39.20;;;;;;5017117;28;20406;-61
2023/04/15 01:34:58;;;;;;;1.17;0.80;;;21.90;39.20;;;;;;5014849;28;20461;-60
2023/04/15 01:37:26;;;;;;;1.02;0.93;;;21.90;39.20;;;;;;5013034;28;20414;-62
2023/04/15 01:39:53;;;;;;;0.65;0.65;;;21.90;39.20;;;;;;5017728;28;20046;-60
2023/04/15 01:42:21;;;;;;;0.65;0.65;;;21.90;39.20;;;;;;5018731;28;20148;-60
2023/04/15 01:44:48;;;;;;;0.88;0.80;;;21.90;39.20;;;;;;5017589;28;20494;-61
2023/04/15 01:47:15;;;;;;;0.98;0.88;;;21.90;39.10;;;;;;5022336;28;20137;-61
2023/04/15 01:49:42;;;;;;;1.15;0.90;;;21.90;39.10;;;;;;5018269;28;21279;-61
2023/04/15 01:52:09;;;;;;;0.57;0.57;;;21.90;39.10;;;;;;5018852;28;20053;-61
2023/04/15 01:54:37;;;;;;;0.82;0.80;;;21.90;39.10;;;;;;5019424;28;20053;-61
2023/04/15 01:57:04;;;;;;;0.77;0.77;;;21.90;39.10;;;;;;5020616;28;20100;-60
2023/04/15 01:59:31;;;;;;;0.88;0.70;;;21.90;39.10;;;;;;5015215;28;20133;-61
2023/04/15 02:01:59;;;;;;;1.20;0.68;;;21.90;39.10;;;;;;5018337;28;20132;-60
2023/04/15 02:04:26;;;;;;;0.82;0.80;;;21.90;39.10;;;;;;5017015;28;20403;-60
2023/04/15 02:06:54;;;;;;;0.60;0.60;;;21.90;39.10;;;;;;5017091;28;20046;-60
2023/04/15 02:09:21;;;;;;;0.80;0.80;;;21.90;39.10;;;;;;5024466;28;20426;-61
2023/04/15 02:11:51;;;;;;;0.73;0.73;;;21.90;39.10;;;;;;5023525;28;20176;-60
2023/04/15 02:14:19;;;;;;;1.20;0.90;;;21.90;39.10;;;;;;5015137;28;20050;-61
2023/04/15 02:16:46;;;;;;;0.88;0.70;;;21.90;39.10;;;;;;5018828;28;20049;-61
2023/04/15 02:19:14;;;;;;;1.05;0.70;;;21.90;39.10;;;;;;5020894;28;20100;-60
2023/04/15 02:21:41;;;;;;;0.73;0.73;;;21.80;39.00;;;;;;5021478;28;20054;-61
2023/04/15 02:24:08;;;;;;;0.80;0.80;;;21.90;39.10;;;;;;5024490;28;20072;-60
2023/04/15 02:26:35;;;;;;;0.85;0.80;;;21.90;39.10;;;;;;5015101;28;20068;-61
2023/04/15 02:29:02;;;;;;;1.17;0.73;;;21.90;39.10;;;;;;5017557;28;20509;-61
2023/04/15 02:31:35;;;;;;;0.82;0.82;;;21.80;39.00;;;;;;5018211;28;20052;-61
2023/04/15 02:34:03;;;;;;;1.00;0.70;;;21.90;39.10;;;;;;5014174;28;20165;-61
2023/04/15 02:36:30;;;;;;;1.23;0.75;;;21.80;39.00;;;;;;5016069;28;20053;-61
2023/04/15 02:38:57;;;;;;;0.90;0.85;;;21.80;39.00;;;;;;5014743;28;20068;-61
2023/04/15 02:41:27;;;;;;;0.70;0.70;;;21.80;39.10;;;;;;5019057;28;20137;-60
2023/04/15 02:43:54;;;;;;;1.00;0.70;;;21.80;39.10;;;;;;5017866;28;20092;-61
2023/04/15 02:46:21;;;;;;;0.75;0.65;;;21.80;39.00;;;;;;5025408;28;20055;-60
2023/04/15 02:48:49;;;;;;;0.73;0.70;;;21.80;39.00;;;;;;5014438;28;20047;-61
2023/04/15 02:51:18;;;;;;;0.90;0.88;;;21.80;39.00;;;;;;5019494;28;20046;-61
2023/04/15 02:53:47;;;;;;;0.77;0.77;;;21.90;39.10;;;;;;5021720;28;20045;-61
2023/04/15 02:56:16;;;;;;;0.60;0.60;;;21.90;39.00;;;;;;5016363;28;20407;-61
2023/04/15 02:58:44;;;;;;;0.60;0.60;;;21.90;39.10;;;;;;5014996;28;20076;-61
2023/04/15 03:01:12;;;;;;;0.70;0.70;;;21.90;39.00;;;;;;5019931;28;20056;-61
2023/04/15 03:03:39;;;;;;;0.70;0.70;;;21.90;39.00;;;;;;5017929;28;20195;-62
2023/04/15 03:06:07;;;;;;;0.65;0.55;;;21.90;39.50;;;;;;5015510;28;20342;-61
2023/04/15 03:08:35;;;;;;;0.57;0.57;;;21.90;39.00;;;;;;5021996;28;20053;-60
2023/04/15 03:11:02;;;;;;;0.90;0.70;;;21.90;39.00;;;;;;5012632;28;20064;-60
2023/04/15 03:13:30;;;;;;;0.57;0.57;;;21.90;39.00;;;;;;5012576;28;20058;-60
2023/04/15 03:15:57;;;;;;;0.70;0.50;;;21.90;39.00;;;;;;5018182;28;20065;-61
2023/04/15 03:18:24;;;;;;;0.50;0.50;;;21.90;39.00;;;;;;5013755;28;20165;-60
2023/04/15 03:20:51;;;;;;;0.75;0.65;;;21.90;39.00;;;;;;5020828;28;20053;-61
2023/04/15 03:23:19;;;;;;;0.52;0.52;;;21.90;39.00;;;;;;5019929;28;20057;-60
2023/04/15 03:25:46;;;;;;;0.65;0.65;;;21.90;39.00;;;;;;5021526;28;20049;-61
2023/04/15 03:28:13;;;;;;;0.70;0.50;;;21.90;39.00;;;;;;5020515;28;20115;-61
2023/04/15 03:30:40;;;;;;;1.05;0.60;;;21.90;39.00;;;;;;5015038;28;20482;-61
2023/04/15 03:33:07;;;;;;;0.50;0.50;;;21.90;39.00;;;;;;5022992;28;20062;-61
2023/04/15 03:35:35;;;;;;;0.50;0.50;;;21.90;39.00;;;;;;5012443;28;20491;-61
2023/04/15 03:38:02;;;;;;;0.88;0.55;;;21.90;39.00;;;;;;5017355;28;20481;-61
2023/04/15 03:40:30;;;;;;;0.70;0.70;;;21.90;39.00;;;;;;5021258;28;20049;-60
2023/04/15 03:42:57;;;;;;;1.10;0.60;;;21.90;39.00;;;;;;5018210;28;20054;-61
2023/04/15 03:45:24;;;;;;;0.47;0.47;;;21.90;39.00;;;;;;5019324;28;20042;-60
2023/04/15 03:47:51;;;;;;;0.85;0.63;;;21.90;39.00;;;;;;5020910;28;20053;-60
2023/04/15 03:50:18;;;;;;;0.60;0.50;;;21.80;38.90;;;;;;5022546;28;20490;-61
2023/04/15 03:52:46;;;;;;;0.38;0.38;;;21.80;38.90;;;;;;5018390;28;20057;-60
2023/04/15 03:55:15;;;;;;;0.30;0.30;;;21.90;39.00;;;;;;5017967;28;20050;-60
2023/04/15 03:57:42;;;;;;;0.55;0.55;;;21.80;38.90;;;;;;5017504;28;20057;-60
2023/04/15 04:00:09;;;;;;;1.00;0.88;;;21.90;39.00;;;;;;5020101;28;20046;-61
2023/04/15 04:02:37;;;;;;;0.73;0.70;;;21.80;38.90;;;;;;5022650;28;20056;-61
2023/04/15 04:05:05;;;;;;;0.40;0.40;;;21.80;38.90;;;;;;5012537;28;20064;-61
2023/04/15 04:07:32;;;;;;;0.30;0.30;;;21.80;38.90;;;;;;5014355;28;20054;-60
2023/04/15 04:10:00;;;;;;;0.77;0.60;;;21.80;38.90;;;;;;5017311;28;20058;-61
2023/04/15 04:12:27;;;;;;;0.55;0.40;;;21.90;39.00;;;;;;5015552;28;20060;-60
2023/04/15 04:14:54;;;;;;;0.43;0.40;;;21.80;38.90;;;;;;5020322;28;20060;-60
2023/04/15 04:17:21;;;;;;;0.82;0.50;;;21.80;38.90;;;;;;5020522;28;20196;-60
2023/04/15 04:19:49;;;;;;;0.38;0.38;;;21.80;38.90;;;;;;5016918;28;20050;-60
2023/04/15 04:22:16;;;;;;;0.30;0.30;;;21.80;38.90;;;;;;5018149;28;21381;-60
2023/04/15 04:24:43;;;;;;;0.50;0.50;;;21.80;38.90;;;;;;5015767;28;20129;-61
2023/04/15 04:27:10;;;;;;;0.30;0.30;;;21.80;38.90;;;;;;5011868;28;20077;-60
2023/04/15 04:29:38;;;;;;;0.98;0.60;;;21.80;38.90;;;;;;5018354;28;20050;-60
2023/04/15 04:32:05;;;;;;;0.45;0.45;;;21.80;38.90;;;;;;5020783;28;20095;-61
2023/04/15 04:34:32;;;;;;;0.30;0.30;;;21.80;38.90;;;;;;5019536;28;20573;-61
2023/04/15 04:37:00;;;;;;;0.50;0.40;;;21.80;38.90;;;;;;5016061;28;20103;-60
2023/04/15 04:39:27;;;;;;;0.60;0.47;;;21.80;38.80;;;;;;5020445;28;20100;-60
2023/04/15 04:41:55;;;;;;;0.82;0.38;;;21.80;38.70;;;;;;5017745;28;20058;-62
2023/04/15 04:44:22;;;;;;;0.30;0.30;;;21.80;38.70;;;;;;5022967;28;20525;-60
2023/04/15 04:46:49;;;;;;;0.40;0.40;;;21.80;38.70;;;;;;5026001;28;20495;-60
2023/04/15 04:49:16;;;;;;;0.40;0.40;;;21.80;38.80;;;;;;5015744;28;20572;-60
2023/04/15 04:51:44;;;;;;;0.30;0.30;;;21.80;38.90;;;;;;5023412;28;20466;-60
2023/04/15 04:54:11;;;;;;;0.65;0.52;;;21.80;38.80;;;;;;5021213;28;20054;-60
2023/04/15 04:56:38;;;;;;;0.57;0.38;;;21.80;38.80;;;;;;5018614;28;20062;-60
2023/04/15 04:59:06;;;;;;;0.60;0.60;;;21.90;38.80;;;;;;5020653;28;20068;-61
2023/04/15 05:01:33;;;;;;;0.25;0.25;;;21.90;38.80;;;;;;5019456;28;20081;-60
2023/04/15 05:04:01;;;;;;;0.43;0.43;;;21.90;38.70;;;;;;5019805;28;20057;-61
2023/04/15 05:06:29;;;;;;;0.40;0.30;;;21.90;38.60;;;;;;5016151;28;20064;-60
2023/04/15 05:08:57;;;;;;;0.40;0.40;;;21.90;38.60;;;;;;5023763;28;20516;-60
2023/04/15 05:11:24;;;;;;;0.28;0.20;;;21.90;38.60;;;;;;5015759;28;20506;-60
2023/04/15 05:13:51;;;;;;;0.20;0.20;;;21.90;38.50;;;;;;5022093;28;20104;-60
2023/04/15 05:16:19;;;;;;;0.32;0.32;;;21.90;38.50;;;;;;5022814;28;20426;-60
2023/04/15 05:18:47;;;;;;;0.40;0.40;;;21.90;38.50;;;;;;5021608;28;20113;-60
2023/04/15 05:21:14;;;;;;;0.20;0.20;;;22.00;38.40;;;;;;5017204;28;20060;-60
2023/04/15 05:23:41;;;;;;;0.28;0.28;;;21.90;38.40;;;;;;5015105;28;20490;-60
2023/04/15 05:26:08;;;;;;;0.40;0.30;;;22.00;38.40;;;;;;5025364;28;20046;-60
2023/04/15 05:28:35;;;;;;;0.43;0.43;;;22.00;38.30;;;;;;5020519;28;20057;-60
2023/04/15 05:31:03;;;;;;;0.45;0.45;;;22.00;38.30;;;;;;5024488;28;20063;-62
2023/04/15 05:33:30;;;;;;;0.13;0.13;;;22.10;38.30;;;;;;5022307;28;20053;-60
2023/04/15 05:35:57;;;;;;;0.45;0.30;;;22.10;38.20;;;;;;5016459;28;20145;-60
2023/04/15 05:38:25;;;;;;;0.30;0.30;;;22.10;38.20;;;;;;5024520;28;20406;-60
2023/04/15 05:40:52;;;;;;;0.35;0.20;;;22.10;38.10;;;;;;5022707;28;20045;-60
2023/04/15 05:43:22;;;;;;;0.55;0.55;;;22.20;38.10;;;;;;5026380;28;20058;-60
2023/04/15 05:45:50;;;;;;;2.17;0.70;;;22.10;38.00;;;;;;5019794;28;20045;-60
2023/04/15 05:48:17;;;;;;;0.40;0.40;;;22.20;38.10;;;;;;5015521;28;20131;-61
2023/04/15 05:50:44;;;;;;;0.40;0.40;;;22.20;38.00;;;;;;5024405;28;20049;-60
2023/04/15 05:53:11;;;;;;;0.50;0.38;;;22.20;38.00;;;;;;5015043;28;20061;-61
2023/04/15 05:55:39;;;;;;;2.13;0.80;;;22.30;37.90;;;;;;5022690;28;20064;-61
2023/04/15 05:58:06;;;;;;;0.57;0.40;;;22.30;37.90;;;;;;5020618;28;20053;-60
2023/04/15 06:00:33;;;;;;;0.22;0.22;;;22.40;37.80;;;;;;5018192;28;20057;-60
2023/04/15 06:03:00;;;;;;;0.32;0.32;;;22.30;37.70;;;;;;5014688;28;20062;-60
2023/04/15 06:05:28;;;;;;;0.30;0.30;;;22.40;37.70;;;;;;5017166;28;20140;-60
2023/04/15 06:07:55;;;;;;;0.57;0.40;;;22.40;37.70;;;;;;5017795;28;20052;-60
2023/04/15 06:10:22;;;;;;;0.75;0.40;;;22.40;37.60;;;;;;5019245;28;20053;-60
2023/04/15 06:12:51;;;;;;;0.32;0.20;;;22.40;37.60;;;;;;5017117;28;20063;-60
2023/04/15 06:15:18;;;;;;;0.40;0.40;;;22.50;37.60;;;;;;5018985;28;20136;-60
2023/04/15 06:17:46;;;;;;;0.47;0.30;;;22.50;37.60;;;;;;5017254;28;20076;-60
2023/04/15 06:20:13;;;;;;;0.50;0.40;;;22.50;37.50;;;;;;5017653;28;20429;-61
2023/04/15 06:22:40;;;;;;;0.55;0.20;;;22.50;37.50;;;;;;5020330;28;20058;-60
2023/04/15 06:25:08;;;;;;;0.35;0.35;;;22.50;37.50;;;;;;5020515;28;20050;-60
2023/04/15 06:27:35;;;;;;;0.30;0.20;;;22.50;37.50;;;;;;5013621;28;20060;-60
2023/04/15 06:30:03;;;;;;;0.43;0.40;;;22.50;37.50;;;;;;5019100;28;20468;-60
2023/04/15 06:32:31;;;;;;;1.08;0.30;;;22.50;37.50;;;;;;5013147;28;20046;-60
2023/04/15 06:34:59;;;;;;;0.57;0.30;;;22.50;37.40;;;;;;5022776;28;20525;-60
2023/04/15 06:37:30;;;;;;;1.30;0.55;;;22.50;37.40;;;;;;5016811;28;20057;-60
2023/04/15 06:39:57;;;;;;;0.30;0.30;;;22.50;37.40;;;;;;5015381;28;20053;-60
2023/04/15 06:42:24;;;;;;;1.65;0.38;;;22.60;37.40;;;;;;5023397;28;20144;-60
2023/04/15 06:44:51;;;;;;;0.30;0.30;;;22.60;37.30;;;;;;5019579;28;20046;-60
2023/04/15 06:47:18;;;;;;;0.63;0.50;;;22.60;37.30;;;;;;5016508;28;20536;-61
2023/04/15 06:49:45;;;;;;;0.35;0.35;;;22.70;37.30;;;;;;5020180;28;20128;-60
2023/04/15 06:52:13;;;;;;;0.32;0.32;;;22.70;37.80;;;;;;5015439;28;20053;-60
2023/04/15 06:54:40;;;;;;;0.17;0.15;;;22.70;37.10;;;;;;5016408;28;20061;-60
2023/04/15 06:57:08;;;;;;;0.30;0.30;;;22.80;37.20;;;;;;5019608;28;20526;-60
2023/04/15 06:59:35;;;;;;;0.50;0.30;;;22.80;37.20;;;;;;5020375;28;20057;-60
2023/04/15 07:02:02;;;;;;;0.40;0.40;;;22.90;37.20;;;;;;5013126;28;20057;-61
2023/04/15 07:04:30;;;;;;;0.25;0.22;;;22.90;37.10;;;;;;5017522;28;20144;-61
2023/04/15 07:07:01;;;;;;;1.75;0.30;;;22.90;37.00;;;;;;5021849;28;20059;-60
2023/04/15 07:09:28;;;;;;;0.30;0.30;;;22.90;37.00;;;;;;5022755;28;20071;-60
2023/04/15 07:11:55;;;;;;;0.77;0.40;;;22.90;36.90;;;;;;5012802;28;20053;-61
2023/04/15 07:14:22;;;;;;;0.73;0.73;;;22.90;36.90;;;;;;5021843;28;20080;-61
2023/04/15 07:16:50;;;;;;;0.35;0.35;;;23.00;36.90;;;;;;5016525;28;20065;-61
2023/04/15 07:19:18;;;;;;;0.70;0.40;;;23.00;36.90;;;;;;5015704;28;20478;-61
2023/04/15 07:21:45;;;;;;;0.40;0.40;;;23.00;36.90;;;;;;5016364;28;20062;-61
2023/04/15 07:24:16;;;;;;;0.47;0.47;;;23.00;36.80;;;;;;5014469;28;20418;-61
2023/04/15 07:26:44;;;;;;;0.52;0.40;;;23.00;36.80;;;;;;5015476;28;20060;-61
2023/04/15 07:29:11;;;;;;;0.30;0.30;;;23.00;36.90;;;;;;5019668;28;20049;-61
2023/04/15 07:31:40;;;;;;;0.30;0.30;;;23.00;36.90;;;;;;5025262;28;20145;-61
2023/04/15 07:34:07;;;;;;;0.60;0.30;;;23.00;36.80;;;;;;5015917;28;20172;-61
2023/04/15 07:36:34;;;;;;;0.30;0.30;;;23.00;36.80;;;;;;5022359;28;20054;-62
2023/04/15 07:39:02;;;;;;;1.02;0.38;;;23.00;36.70;;;;;;5014767;28;20062;-61
2023/04/15 07:41:30;;;;;;;0.20;0.20;;;23.00;36.70;;;;;;5018682;28;20525;-61
2023/04/15 07:43:57;;;;;;;0.40;0.40;;;23.00;36.70;;;;;;5015056;28;20430;-61
2023/04/15 07:46:26;;;;;;;0.43;0.43;;;23.10;36.70;;;;;;5019671;28;20052;-62
2023/04/15 07:48:53;;;;;;;0.30;0.25;;;23.10;36.70;;;;;;5013832;28;20533;-61
2023/04/15 07:51:21;;;;;;;0.65;0.30;;;23.10;36.70;;;;;;5023786;28;20503;-61
2023/04/15 07:53:49;;;;;;;0.40;0.40;;;23.10;36.70;;;;;;5018251;28;20049;-62
2023/04/15 07:56:16;;;;;;;0.30;0.30;;;23.10;36.70;;;;;;5019084;28;20520;-61
2023/04/15 07:58:43;;;;;;;1.30;0.40;;;23.10;36.70;;;;;;5014390;28;20067;-61
2023/04/15 08:01:11;;;;;;;0.40;0.40;;;23.10;36.70;;;;;;5017085;28;20490;-62
2023/04/15 08:03:38;;;;;;;0.43;0.25;;;23.10;36.60;;;;;;5015852;28;20053;-62
2023/04/15 08:06:07;;;;;;;0.40;0.40;;;23.10;36.60;;;;;;5015951;28;20068;-61
2023/04/15 08:08:34;;;;;;;0.47;0.40;;;23.10;36.60;;;;;;5014124;28;20049;-61
2023/04/15 08:11:01;;;;;;;0.30;0.30;;;23.10;36.60;;;;;;5012949;28;20046;-61
2023/04/15 08:13:28;;;;;;;0.63;0.50;;;23.20;36.60;;;;;;5026716;28;20155;-64
2023/04/15 08:16:18;;;;;;;0.45;0.35;;;23.20;36.50;;;;;;5024186;28;20053;-61
2023/04/15 08:18:46;;;;;;;0.52;0.50;;;23.30;36.50;;;;;;5017282;28;20575;-61
2023/04/15 08:21:14;;;;;;;0.65;0.52;;;23.30;36.40;;;;;;5018358;28;20045;-62
2023/04/15 08:23:41;;;;;;;0.50;0.50;;;23.40;36.40;;;;;;5017973;28;20056;-61
2023/04/15 08:26:09;;;;;;;0.32;0.30;;;23.40;36.30;;;;;;5019440;28;20129;-61
2023/04/15 08:28:40;;;;;;;0.45;0.40;;;23.50;36.20;;;;;;5016995;28;20049;-62
2023/04/15 08:31:08;;;;;;;0.20;0.20;;;23.60;36.10;;;;;;5025082;28;20057;-61
2023/04/15 08:33:35;;;;;;;0.98;0.40;;;23.60;36.00;;;;;;5018430;28;20050;-62
2023/04/15 08:36:03;;;;;;;0.65;0.40;;;23.70;36.10;;;;;;5020269;28;20049;-61
2023/04/15 08:38:30;;;;;;;0.73;0.52;;;23.70;35.90;;;;;;5020134;28;20061;-61
2023/04/15 08:41:01;;;;;;;0.68;0.40;;;23.70;35.90;;;;;;5018681;28;20387;-62
2023/04/15 08:43:39;;;;;;;0.40;0.40;;;23.70;35.80;;;;;;5020054;28;20402;-61
2023/04/15 08:46:08;;;;;;;2.05;0.50;;;23.80;35.80;;;;;;5015967;28;20056;-61
2023/04/15 08:48:37;;;;;;;0.28;0.28;;;23.80;35.80;;;;;;5021448;28;20053;-62
2023/04/15 08:51:05;;;;;;;0.63;0.35;;;23.90;35.80;;;;;;5019733;28;20414;-61
2023/04/15 08:53:32;;;;;;;0.40;0.40;;;23.90;35.60;;;;;;5021127;28;20058;-61
2023/04/15 08:56:06;;;;;;;0.50;0.50;;;23.90;35.60;;;;;;5023453;28;20096;-61
2023/04/15 08:58:34;;;;;;;0.40;0.30;;;24.00;35.60;;;;;;5020318;28;20050;-61
2023/04/15 09:01:02;;;;;;;0.40;0.40;;;24.00;35.60;;;;;;5021846;28;20143;-61
2023/04/15 09:03:30;;;;;;;0.40;0.40;;;24.00;35.60;;;;;;5018412;28;20053;-61
2023/04/15 09:05:58;;;;;;;0.60;0.43;;;24.00;35.60;;;;;;5019810;28;20132;-61
2023/04/15 09:08:25;;;;;;;0.47;0.47;;;24.00;35.70;;;;;;5022707;28;20140;-61
2023/04/15 09:10:53;;;;;;;0.40;0.40;;;24.00;35.60;;;;;;5016767;28;20066;-61
2023/04/15 09:13:21;;;;;;;0.73;0.73;;;24.00;35.50;;;;;;5022586;28;20049;-61
2023/04/15 09:15:48;;;;;;;0.38;0.38;;;24.10;35.60;;;;;;5018794;28;20068;-61
2023/04/15 09:18:28;;;;;;;0.38;0.38;;;24.10;35.50;;;;;;5016583;28;20499;-61
2023/04/15 09:21:04;;;;;;;1.00;0.68;;;24.10;35.50;;;;;;5023854;28;20046;-61
2023/04/15 09:23:32;;;;;;;0.60;0.60;;;24.10;35.50;;;;;;5019379;28;20485;-61
2023/04/15 09:26:03;;;;;;;0.50;0.50;;;24.10;35.50;;;;;;5016439;28;20042;-62
2023/04/15 09:28:31;;;;;;;0.50;0.50;;;24.10;35.50;;;;;;5019772;28;20056;-61
2023/04/15 09:30:59;;;;;;;0.30;0.30;;;24.10;35.50;;;;;;5017156;28;20062;-61
2023/04/15 09:33:29;;;;;;;0.30;0.30;;;24.10;35.50;;;;;;5016531;28;20512;-61
2023/04/15 09:36:04;;;;;;;0.82;0.70;;;24.10;35.50;;;;;;5024285;28;20053;-61
2023/04/15 09:38:31;;;;;;;0.50;0.50;;;24.20;35.60;;;;;;5019152;28;20495;-61
2023/04/15 09:40:59;;;;;;;0.68;0.60;;;24.20;35.50;;;;;;5024007;28;20064;-61
2023/04/15 09:43:39;;;;;;;0.25;0.25;;;24.30;35.50;;;;;;5023697;28;20088;-61
2023/04/15 09:46:06;;;;;;;0.63;0.63;;;24.30;35.40;;;;;;5019280;28;20054;-61
2023/04/15 09:48:34;;;;;;;0.30;0.30;;;24.30;35.30;;;;;;5020729;28;20079;-61
2023/04/15 09:51:01;;;;;;;1.75;0.50;;;24.40;35.30;;;;;;5017103;28;20149;-61
2023/04/15 09:53:28;;;;;;;0.35;0.35;;;24.40;35.30;;;;;;5019292;28;20060;-61
2023/04/15 09:56:01;;;;;;;0.40;0.40;;;24.40;35.30;;;;;;5020401;28;20398;-62
2023/04/15 09:58:32;;;;;;;0.55;0.50;;;24.40;35.20;;;;;;5026208;28;20426;-61
2023/04/15 10:01:02;;;;;;;2.83;0.30;;;24.40;35.20;;;;;;4997966;28;20560;-62
2023/04/15 10:03:33;;;;;;;0.55;0.55;;;24.50;35.20;;;;;;5021434;28;20045;-61
2023/04/15 10:06:02;;;;;;;0.70;0.45;;;24.50;35.10;;;;;;5018045;28;20121;-62
2023/04/15 10:08:33;;;;;;;0.52;0.43;;;24.50;35.00;;;;;;5020279;28;20521;-61
2023/04/15 10:11:02;;;;;;;0.30;0.30;;;24.60;35.10;;;;;;5016882;28;20041;-62
2023/04/15 10:13:32;;;;;;;0.70;0.70;;;24.60;35.10;;;;;;5018471;28;20054;-61
2023/04/15 10:16:10;;;;;;;0.98;0.47;;;24.60;35.00;;;;;;5023482;28;20062;-61
2023/04/15 10:18:42;;;;;;;0.40;0.30;;;24.70;35.00;;;;;;5023812;28;20054;-61
2023/04/15 10:21:12;;;;;;;0.75;0.60;;;24.70;35.00;;;;;;5022220;28;20050;-61
2023/04/15 10:23:40;;;;;;;0.52;0.52;;;24.70;35.00;;;;;;5018253;28;20068;-61
2023/04/15 10:26:08;;;;;;;0.60;0.60;;;24.70;35.00;;;;;;5020843;28;20449;-61
2023/04/15 10:28:35;;;;;;;0.40;0.40;;;24.70;35.00;;;;;;5015889;28;20053;-61
2023/04/15 10:31:04;;;;;;;0.60;0.60;;;24.70;35.10;;;;;;5017939;28;20061;-61
2023/04/15 10:33:33;;;;;;;0.50;0.45;;;24.70;35.10;;;;;;5021027;28;20060;-61
2023/04/15 10:36:01;;;;;;;0.30;0.30;;;24.60;35.00;;;;;;5018903;28;20049;-62
2023/04/15 10:38:40;;;;;;;0.60;0.50;;;24.60;35.00;;;;;;5017462;28;20791;-61
2023/04/15 10:41:20;;;;;;;0.45;0.22;;;24.70;35.10;;;;;;5021040;28;20064;-62
2023/04/15 10:44:00;;;;;;;0.45;0.32;;;24.70;35.10;;;;;;5022255;28;20049;-61
2023/04/15 10:46:43;;;;;;;0.22;0.22;;;24.70;35.10;;;;;;5023594;28;20050;-61
2023/04/15 10:49:16;;;;;;;0.45;0.45;;;24.70;35.10;;;;;;5019293;28;20104;-61
2023/04/15 10:51:46;;;;;;;0.50;0.40;;;24.70;35.10;;;;;;5015618;28;20052;-61
2023/04/15 10:54:16;;;;;;;0.45;0.45;;;24.70;35.10;;;;;;5013821;28;20500;-61
2023/04/15 10:57:11;;;;;;;0.47;0.47;;;24.70;35.10;;;;;;5023120;28;20478;-62
2023/04/15 11:00:03;;;;;;;0.50;0.50;;;24.70;35.10;;;;;;5021523;28;20050;-61
2023/04/15 11:02:44;;;;;;;0.40;0.40;;;24.70;35.10;;;;;;5018211;28;20058;-61
2023/04/15 11:05:14;;;;;;;0.30;0.30;;;24.70;35.70;;;;;;5006659;28;20049;-62
2023/04/15 11:07:55;;;;;;;0.68;0.68;;;24.60;35.10;;;;;;5018178;28;20140;-62
2023/04/15 11:10:52;;;;;;;0.32;0.32;;;24.60;35.10;;;;;;5017554;28;20061;-62
2023/04/15 11:13:23;;;;;;;0.63;0.40;;;24.70;35.20;;;;;;5013535;28;20148;-61
2023/04/15 11:15:56;;;;;;;0.60;0.40;;;24.70;35.20;;;;;;5018056;28;20057;-61
2023/04/15 11:18:27;;;;;;;0.30;0.30;;;24.70;35.30;;;;;;5016627;28;20137;-61
2023/04/15 11:20:56;;;;;;;;;;;24.70;35.30;;;;;;5015586;28;20060;-61
2023/04/15 11:23:37;;;;;;;0.43;0.40;;;24.70;35.40;;;;;;5017719;28;19927;-61
2023/04/15 11:26:10;;;;;;;0.40;0.38;;;24.70;35.40;;;;;;5022961;28;20442;-62
2023/04/15 11:28:40;;;;;;;0.40;0.40;;;24.60;35.50;;;;;;5021741;28;20556;-61
2023/04/15 11:31:12;;;;;;;0.53;0.53;;;24.60;35.50;;;;;;5019004;28;20068;-62
2023/04/15 11:33:58;;;;;;;0.30;0.30;;;24.60;35.50;;;;;;5019372;28;20050;-61
2023/04/15 11:36:26;;;;;;;0.60;0.35;;;24.60;35.50;;;;;;5020303;28;20062;-61
2023/04/15 11:38:54;;;;;;;0.55;0.40;;;24.60;35.50;;;;;;5018789;28;20497;-61
2023/04/15 11:41:22;;;;;;;0.40;0.40;;;24.60;35.40;;;;;;5023926;28;20422;-62
2023/04/15 11:43:50;;;;;;;0.50;0.30;;;24.60;35.40;;;;;;5020252;28;20049;-61
2023/04/15 11:46:17;;;;;;;0.30;0.30;;;24.60;35.40;;;;;;5017266;28;21026;-62
2023/04/15 11:48:46;;;;;;;0.70;0.30;;;24.60;35.30;;;;;;5020574;28;20497;-61
2023/04/15 11:51:14;;;;;;;1.00;0.40;;;24.60;35.40;;;;;;5025309;28;20073;-62
2023/04/15 11:53:54;;;;;;;0.57;0.45;;;24.60;35.30;;;;;;5017152;28;20046;-61
2023/04/15 11:56:24;;;;;;;0.43;0.22;;;24.60;35.30;;;;;;5016652;28;21281;-62
2023/04/15 11:58:55;;;;;;;;;;;24.60;35.30;;;;;;5019850;28;20057;-61
2023/04/15 12:01:35;;;;;;;1.30;0.30;;;24.60;35.30;;;;;;5034076;28;19975;-61
2023/04/15 12:04:15;;;;;;;0.55;0.20;;;24.60;35.30;;;;;;5023359;28;20111;-61
2023/04/15 12:06:42;;;;;;;;;;;24.70;35.30;;;;;;5027966;28;20054;-61
2023/04/15 12:09:14;;;;;;;0.90;0.45;;;24.60;35.20;;;;;;5025369;28;19921;-62
2023/04/15 12:11:50;;;;;;;0.20;0.20;;;24.60;35.20;;;;;;5020305;28;20054;-61
2023/04/15 12:14:21;;;;;;;0.30;0.30;;;24.70;35.10;;;;;;5018000;28;20050;-61
2023/04/15 12:16:52;;;;;;;0.63;0.28;;;24.70;35.00;;;;;;5021860;28;20057;-61
2023/04/15 12:19:28;;;;;;;0.20;0.20;;;24.70;35.00;;;;;;5027750;28;20053;-61
2023/04/15 12:22:01;;;;;;;0.40;0.35;;;24.80;34.90;;;;;;5024299;28;20731;-61
2023/04/15 12:24:33;;;;;;;0.40;0.40;;;24.80;34.90;;;;;;5024032;28;20057;-62
2023/04/15 12:27:09;;;;;;;0.30;0.30;;;24.80;34.80;;;;;;5024852;28;20050;-61
2023/04/15 12:29:38;;;;;;;1.13;0.50;;;24.80;34.80;;;;;;5020982;28;20072;-61
2023/04/15 12:32:11;;;;;;;0.47;0.30;;;24.80;34.80;;;;;;5022156;28;20426;-61
2023/04/15 12:34:50;;;;;;;0.40;0.40;;;24.80;34.70;;;;;;5015720;28;20503;-61
2023/04/15 12:37:18;;;;;;;0.75;0.50;;;24.80;34.60;;;;;;5022086;28;20529;-61
2023/04/15 12:39:47;;;;;;;0.40;0.40;;;24.80;34.60;;;;;;5022995;28;20049;-61
2023/04/15 12:42:16;;;;;;;0.50;0.30;;;24.90;34.60;;;;;;5018753;28;20137;-62
2023/04/15 12:44:43;;;;;;;0.25;0.25;;;24.90;34.60;;;;;;5020094;28;20046;-61
2023/04/15 12:47:12;;;;;;;0.82;0.40;;;24.90;34.50;;;;;;5021552;28;20053;-61
2023/04/15 12:49:40;;;;;;;0.30;0.30;;;24.90;34.40;;;;;;5015965;28;20053;-61
2023/04/15 12:52:07;;;;;;;0.73;0.50;;;24.90;34.40;;;;;;5022140;28;20139;-61
2023/04/15 12:54:35;;;;;;;0.20;0.20;;;24.90;34.40;;;;;;5020588;28;20521;-62
2023/04/15 12:57:03;;;;;;;0.20;0.20;;;25.00;34.40;;;;;;5020334;28;20103;-61